createdAt,value
2018-11-13T00:00:12.148Z,10.45
2018-11-13T00:01:12.134Z,10.45
2018-11-13T00:02:12.135Z,10.45
2018-11-13T00:03:12.092Z,10.48
2018-11-13T00:04:12.076Z,10.46
2018-11-13T00:05:12.065Z,10.49
2018-11-13T00:06:12.060Z,10.46
2018-11-13T00:07:12.068Z,10.48
2018-11-13T00:08:12.098Z,10.54
2018-11-13T00:09:12.041Z,10.55
2018-11-13T00:10:12.035Z,10.57
2018-11-13T00:11:12.042Z,10.48
2018-11-13T00:12:12.000Z,10.48
2018-11-13T00:13:11.984Z,10.64
2018-11-13T00:14:12.016Z,10.55
2018-11-13T00:15:11.972Z,10.60
2018-11-13T00:16:11.982Z,10.64
2018-11-13T00:17:11.948Z,10.62
2018-11-13T00:18:11.939Z,10.61
2018-11-13T00:19:11.932Z,10.62
2018-11-13T00:20:12.069Z,10.67
2018-11-13T00:21:11.899Z,10.62
2018-11-13T00:22:11.887Z,10.62
2018-11-13T00:23:11.892Z,10.55
2018-11-13T00:24:11.882Z,10.54
2018-11-13T00:25:11.882Z,10.67
2018-11-13T00:26:11.876Z,10.58
2018-11-13T00:27:11.835Z,10.61
2018-11-13T00:28:11.822Z,10.61
2018-11-13T00:29:11.823Z,10.55
2018-11-13T00:30:11.818Z,10.57
2018-11-13T00:31:11.799Z,10.62
2018-11-13T00:32:11.843Z,10.65
2018-11-13T00:33:11.775Z,10.55
2018-11-13T00:34:11.765Z,10.62
2018-11-13T00:35:11.763Z,10.58
2018-11-13T00:36:11.763Z,10.55
2018-11-13T00:37:11.733Z,10.55
2018-11-13T00:38:11.751Z,10.55
2018-11-13T00:39:11.771Z,10.60
2018-11-13T00:40:11.691Z,10.60
2018-11-13T00:41:11.684Z,10.57
2018-11-13T00:42:11.681Z,10.52
2018-11-13T00:43:11.672Z,10.58
2018-11-13T00:44:11.696Z,10.54
2018-11-13T00:45:11.679Z,10.52
2018-11-13T00:46:11.655Z,10.58
2018-11-13T00:47:11.610Z,10.54
2018-11-13T00:48:11.664Z,10.65
2018-11-13T00:49:11.589Z,10.54
2018-11-13T00:50:11.614Z,10.62
2018-11-13T00:51:11.568Z,10.55
2018-11-13T00:52:11.557Z,10.62
2018-11-13T00:53:11.561Z,10.61
2018-11-13T00:54:11.544Z,10.52
2018-11-13T00:55:11.539Z,10.57
2018-11-13T00:56:11.565Z,10.62
2018-11-13T00:57:11.500Z,10.54
2018-11-13T00:58:11.492Z,10.60
2018-11-13T00:59:11.488Z,10.58
2018-11-13T01:00:11.501Z,10.49
2018-11-13T01:01:11.461Z,10.52
2018-11-13T01:02:11.497Z,10.54
2018-11-13T01:03:11.447Z,10.49
2018-11-13T01:04:11.424Z,10.60
2018-11-13T01:05:11.483Z,10.52
2018-11-13T01:06:11.432Z,10.58
2018-11-13T01:07:11.404Z,10.57
2018-11-13T01:08:11.458Z,10.52
2018-11-13T01:09:11.375Z,10.52
2018-11-13T01:10:11.363Z,10.52
2018-11-13T01:11:11.381Z,10.54
2018-11-13T01:12:11.348Z,10.48
2018-11-13T01:13:11.325Z,10.57
2018-11-13T01:14:11.521Z,10.45
2018-11-13T01:15:11.423Z,10.46
2018-11-13T01:16:11.295Z,10.49
2018-11-13T01:17:11.304Z,10.48
2018-11-13T01:18:11.286Z,10.45
2018-11-13T01:19:11.262Z,10.45
2018-11-13T01:20:11.307Z,10.49
2018-11-13T01:21:11.246Z,10.41
2018-11-13T01:22:11.231Z,10.43
2018-11-13T01:23:12.087Z,10.39
2018-11-13T01:24:11.227Z,10.48
2018-11-13T01:25:11.216Z,10.39
2018-11-13T01:26:11.249Z,10.36
2018-11-13T01:27:11.188Z,10.30
2018-11-13T01:28:11.177Z,10.26
2018-11-13T01:29:11.161Z,10.30
2018-11-13T01:30:11.162Z,10.34
2018-11-13T01:31:11.144Z,10.27
2018-11-13T01:32:11.186Z,10.28
2018-11-13T01:33:11.120Z,10.21
2018-11-13T01:34:11.108Z,10.31
2018-11-13T01:35:11.108Z,10.27
2018-11-13T01:36:11.090Z,10.21
2018-11-13T01:37:11.089Z,10.21
2018-11-13T01:38:11.119Z,10.31
2018-11-13T01:39:11.069Z,10.30
2018-11-13T01:40:11.048Z,10.28
2018-11-13T01:41:11.033Z,10.39
2018-11-13T01:42:11.028Z,10.39
2018-11-13T01:43:11.013Z,10.34
2018-11-13T01:44:11.054Z,10.38
2018-11-13T01:45:10.996Z,10.48
2018-11-13T01:46:10.994Z,10.52
2018-11-13T01:47:10.988Z,10.49
2018-11-13T01:48:10.988Z,10.48
2018-11-13T01:49:10.947Z,10.48
2018-11-13T01:50:10.976Z,10.46
2018-11-13T01:51:10.932Z,10.54
2018-11-13T01:52:10.923Z,10.49
2018-11-13T01:53:10.919Z,10.48
2018-11-13T01:54:10.925Z,10.42
2018-11-13T01:55:10.893Z,10.48
2018-11-13T01:56:10.913Z,10.41
2018-11-13T01:57:10.910Z,10.43
2018-11-13T01:58:10.857Z,10.38
2018-11-13T01:59:10.843Z,10.42
2018-11-13T02:00:10.871Z,10.48
2018-11-13T02:01:10.838Z,10.48
2018-11-13T02:02:10.849Z,10.49
2018-11-13T02:03:10.795Z,10.46
2018-11-13T02:04:10.804Z,10.45
2018-11-13T02:05:10.788Z,10.48
2018-11-13T02:06:10.770Z,10.46
2018-11-13T02:07:10.786Z,10.48
2018-11-13T02:08:10.799Z,10.49
2018-11-13T02:09:10.765Z,10.54
2018-11-13T02:10:10.723Z,10.58
2018-11-13T02:11:10.718Z,10.55
2018-11-13T02:12:10.706Z,10.48
2018-11-13T02:13:10.757Z,10.65
2018-11-13T02:14:10.714Z,10.54
2018-11-13T02:15:10.670Z,10.57
2018-11-13T02:16:10.655Z,10.58
2018-11-13T02:17:10.649Z,10.65
2018-11-13T02:18:10.642Z,10.67
2018-11-13T02:19:10.618Z,10.57
2018-11-13T02:20:10.669Z,10.57
2018-11-13T02:21:10.597Z,10.60
2018-11-13T02:22:10.597Z,10.68
2018-11-13T02:23:10.598Z,10.58
2018-11-13T02:24:10.573Z,10.67
2018-11-13T02:25:10.555Z,10.78
2018-11-13T02:26:10.585Z,10.78
2018-11-13T02:27:10.539Z,10.64
2018-11-13T02:28:10.524Z,10.65
2018-11-13T02:29:10.512Z,10.75
2018-11-13T02:30:10.506Z,10.72
2018-11-13T02:31:10.505Z,10.65
2018-11-13T02:32:10.526Z,10.58
2018-11-13T02:33:10.474Z,10.67
2018-11-13T02:34:10.454Z,10.62
2018-11-13T02:35:10.450Z,10.64
2018-11-13T02:36:10.474Z,10.68
2018-11-13T02:37:10.428Z,10.67
2018-11-13T02:38:10.459Z,10.60
2018-11-13T02:39:10.424Z,10.62
2018-11-13T02:40:10.404Z,10.58
2018-11-13T02:41:10.414Z,10.57
2018-11-13T02:42:10.377Z,10.54
2018-11-13T02:43:10.360Z,10.68
2018-11-13T02:44:10.403Z,10.64
2018-11-13T02:45:10.340Z,10.60
2018-11-13T02:46:10.331Z,10.58
2018-11-13T02:47:10.329Z,10.54
2018-11-13T02:48:10.305Z,10.61
2018-11-13T02:49:10.370Z,10.60
2018-11-13T02:50:10.332Z,10.65
2018-11-13T02:51:10.285Z,10.67
2018-11-13T02:52:10.267Z,10.70
2018-11-13T02:53:10.247Z,10.67
2018-11-13T02:54:10.240Z,10.67
2018-11-13T02:55:10.236Z,10.61
2018-11-13T02:56:10.254Z,10.57
2018-11-13T02:57:10.214Z,10.61
2018-11-13T02:58:10.192Z,10.57
2018-11-13T02:59:10.188Z,10.55
2018-11-13T03:00:10.176Z,10.49
2018-11-13T03:01:10.177Z,10.57
2018-11-13T03:02:10.196Z,10.64
2018-11-13T03:03:10.145Z,10.64
2018-11-13T03:04:10.136Z,10.65
2018-11-13T03:05:10.121Z,10.61
2018-11-13T03:06:10.114Z,10.60
2018-11-13T03:07:10.098Z,10.70
2018-11-13T03:08:10.124Z,10.67
2018-11-13T03:09:10.081Z,10.65
2018-11-13T03:10:10.066Z,10.64
2018-11-13T03:11:10.067Z,10.64
2018-11-13T03:12:10.048Z,10.78
2018-11-13T03:13:10.040Z,10.61
2018-11-13T03:14:10.095Z,10.67
2018-11-13T03:15:10.026Z,10.64
2018-11-13T03:16:10.008Z,10.70
2018-11-13T03:17:10.012Z,10.55
2018-11-13T03:18:10.002Z,10.65
2018-11-13T03:19:10.034Z,10.57
2018-11-13T03:20:10.035Z,10.61
2018-11-13T03:21:09.948Z,10.58
2018-11-13T03:22:09.936Z,10.70
2018-11-13T03:23:09.927Z,10.60
2018-11-13T03:24:09.957Z,10.61
2018-11-13T03:25:09.913Z,10.72
2018-11-13T03:26:09.944Z,10.75
2018-11-13T03:27:09.882Z,10.72
2018-11-13T03:28:09.878Z,10.68
2018-11-13T03:29:09.863Z,10.67
2018-11-13T03:30:09.854Z,10.67
2018-11-13T03:31:09.917Z,10.76
2018-11-13T03:32:09.863Z,10.76
2018-11-13T03:33:09.831Z,10.73
2018-11-13T03:34:09.807Z,10.64
2018-11-13T03:35:09.835Z,10.73
2018-11-13T03:36:09.799Z,10.62
2018-11-13T03:37:09.777Z,10.65
2018-11-13T03:38:10.110Z,10.70
2018-11-13T03:39:09.762Z,10.68
2018-11-13T03:40:09.768Z,10.65
2018-11-13T03:41:09.736Z,10.70
2018-11-13T03:42:09.742Z,10.68
2018-11-13T03:43:09.742Z,10.68
2018-11-13T03:44:09.772Z,10.67
2018-11-13T03:45:09.695Z,10.70
2018-11-13T03:46:09.678Z,10.75
2018-11-13T03:47:09.668Z,10.79
2018-11-13T03:48:09.678Z,10.67
2018-11-13T03:49:09.658Z,10.64
2018-11-13T03:50:09.670Z,10.64
2018-11-13T03:51:09.624Z,10.67
2018-11-13T03:52:09.614Z,10.68
2018-11-13T03:53:09.604Z,10.75
2018-11-13T03:54:09.597Z,10.64
2018-11-13T03:55:09.584Z,10.70
2018-11-13T03:56:09.789Z,10.67
2018-11-13T03:57:09.557Z,10.67
2018-11-13T03:58:09.544Z,10.78
2018-11-13T03:59:09.541Z,10.73
2018-11-13T04:00:09.527Z,10.75
2018-11-13T04:01:09.520Z,10.76
2018-11-13T04:02:09.637Z,10.67
2018-11-13T04:03:09.539Z,10.68
2018-11-13T04:04:09.496Z,10.75
2018-11-13T04:05:09.470Z,10.65
2018-11-13T04:06:09.482Z,10.68
2018-11-13T04:07:09.474Z,10.62
2018-11-13T04:08:09.496Z,10.73
2018-11-13T04:09:09.429Z,10.67
2018-11-13T04:10:09.419Z,10.65
2018-11-13T04:11:09.435Z,10.73
2018-11-13T04:12:09.439Z,10.62
2018-11-13T04:13:09.396Z,10.64
2018-11-13T04:14:09.440Z,10.70
2018-11-13T04:15:09.377Z,10.67
2018-11-13T04:16:09.368Z,10.62
2018-11-13T04:17:09.351Z,10.65
2018-11-13T04:18:09.329Z,10.62
2018-11-13T04:19:09.342Z,10.67
2018-11-13T04:20:09.361Z,10.64
2018-11-13T04:21:09.309Z,10.67
2018-11-13T04:22:09.311Z,10.67
2018-11-13T04:23:09.306Z,10.78
2018-11-13T04:24:09.299Z,10.64
2018-11-13T04:25:09.280Z,10.65
2018-11-13T04:26:09.307Z,10.67
2018-11-13T04:27:09.237Z,10.68
2018-11-13T04:28:09.233Z,10.68
2018-11-13T04:29:09.212Z,10.67
2018-11-13T04:30:09.202Z,10.68
2018-11-13T04:31:09.197Z,10.67
2018-11-13T04:32:09.213Z,10.64
2018-11-13T04:33:09.182Z,10.64
2018-11-13T04:34:09.195Z,10.65
2018-11-13T04:35:09.151Z,10.72
2018-11-13T04:36:09.137Z,10.67
2018-11-13T04:37:09.135Z,10.62
2018-11-13T04:38:09.157Z,10.65
2018-11-13T04:39:09.103Z,10.64
2018-11-13T04:40:09.087Z,10.76
2018-11-13T04:41:09.082Z,10.73
2018-11-13T04:42:09.081Z,10.70
2018-11-13T04:43:09.076Z,10.65
2018-11-13T04:44:09.139Z,10.68
2018-11-13T04:45:09.036Z,10.68
2018-11-13T04:46:09.029Z,10.58
2018-11-13T04:47:09.027Z,10.73
2018-11-13T04:48:09.038Z,10.65
2018-11-13T04:49:09.041Z,10.61
2018-11-13T04:50:09.031Z,10.64
2018-11-13T04:51:08.978Z,10.65
2018-11-13T04:52:08.994Z,10.67
2018-11-13T04:53:08.952Z,10.76
2018-11-13T04:54:08.973Z,10.76
2018-11-13T04:55:08.942Z,10.68
2018-11-13T04:56:08.964Z,10.64
2018-11-13T04:57:08.928Z,10.73
2018-11-13T04:58:08.900Z,10.79
2018-11-13T04:59:08.892Z,10.65
2018-11-13T05:00:08.884Z,10.79
2018-11-13T05:01:08.903Z,10.79
2018-11-13T05:02:08.909Z,10.72
2018-11-13T05:03:08.848Z,10.79
2018-11-13T05:04:08.831Z,10.79
2018-11-13T05:05:08.879Z,10.78
2018-11-13T05:06:08.834Z,10.80
2018-11-13T05:07:08.826Z,10.79
2018-11-13T05:08:08.878Z,10.75
2018-11-13T05:09:08.770Z,10.78
2018-11-13T05:10:08.879Z,10.79
2018-11-13T05:11:08.756Z,10.72
2018-11-13T05:12:08.743Z,10.78
2018-11-13T05:13:08.732Z,10.79
2018-11-13T05:14:08.795Z,10.73
2018-11-13T05:15:08.722Z,10.65
2018-11-13T05:16:08.706Z,10.75
2018-11-13T05:17:08.717Z,10.68
2018-11-13T05:18:08.687Z,10.67
2018-11-13T05:19:08.664Z,10.65
2018-11-13T05:20:08.712Z,10.70
2018-11-13T05:21:08.655Z,10.75
2018-11-13T05:22:08.637Z,10.76
2018-11-13T05:23:08.656Z,10.79
2018-11-13T05:24:08.613Z,10.76
2018-11-13T05:25:08.607Z,10.79
2018-11-13T05:26:08.625Z,10.83
2018-11-13T05:27:08.582Z,10.83
2018-11-13T05:28:08.568Z,10.91
2018-11-13T05:29:08.555Z,10.76
2018-11-13T05:30:08.544Z,10.90
2018-11-13T05:31:08.544Z,10.76
2018-11-13T05:32:08.572Z,10.76
2018-11-13T05:33:08.512Z,10.79
2018-11-13T05:34:08.502Z,10.80
2018-11-13T05:35:08.496Z,10.79
2018-11-13T05:36:08.480Z,10.80
2018-11-13T05:37:08.478Z,10.85
2018-11-13T05:38:08.499Z,10.68
2018-11-13T05:39:08.539Z,10.76
2018-11-13T05:40:08.457Z,10.79
2018-11-13T05:41:08.426Z,10.83
2018-11-13T05:42:08.435Z,10.79
2018-11-13T05:43:08.404Z,10.86
2018-11-13T05:44:08.445Z,10.80
2018-11-13T05:45:08.406Z,10.83
2018-11-13T05:46:08.371Z,10.83
2018-11-13T05:47:08.372Z,10.79
2018-11-13T05:48:08.350Z,10.75
2018-11-13T05:49:08.341Z,10.78
2018-11-13T05:50:08.377Z,10.83
2018-11-13T05:51:08.319Z,10.85
2018-11-13T05:52:08.312Z,10.87
2018-11-13T05:53:08.300Z,10.80
2018-11-13T05:54:08.285Z,10.83
2018-11-13T05:55:08.277Z,10.79
2018-11-13T05:56:08.659Z,10.80
2018-11-13T05:57:08.257Z,10.83
2018-11-13T05:58:08.247Z,10.79
2018-11-13T05:59:08.252Z,10.85
2018-11-13T06:00:08.231Z,10.90
2018-11-13T06:01:08.215Z,10.80
2018-11-13T06:02:08.257Z,10.80
2018-11-13T06:03:08.195Z,10.76
2018-11-13T06:04:08.193Z,10.78
2018-11-13T06:05:08.186Z,10.86
2018-11-13T06:06:08.163Z,10.85
2018-11-13T06:07:08.159Z,10.86
2018-11-13T06:08:08.174Z,10.87
2018-11-13T06:09:08.151Z,10.83
2018-11-13T06:10:08.120Z,10.87
2018-11-13T06:11:08.138Z,10.94
2018-11-13T06:12:08.097Z,10.82
2018-11-13T06:13:08.083Z,10.83
2018-11-13T06:14:08.219Z,10.86
2018-11-13T06:15:08.066Z,10.87
2018-11-13T06:16:08.081Z,10.83
2018-11-13T06:17:08.041Z,10.82
2018-11-13T06:18:08.071Z,10.80
2018-11-13T06:19:08.026Z,10.93
2018-11-13T06:20:08.064Z,10.85
2018-11-13T06:21:08.006Z,10.94
2018-11-13T06:22:08.018Z,10.90
2018-11-13T06:23:08.014Z,10.79
2018-11-13T06:24:08.010Z,10.76
2018-11-13T06:25:07.969Z,10.79
2018-11-13T06:26:07.983Z,10.90
2018-11-13T06:27:07.952Z,10.93
2018-11-13T06:28:07.933Z,10.93
2018-11-13T06:29:07.956Z,10.93
2018-11-13T06:30:07.942Z,10.85
2018-11-13T06:31:07.900Z,10.90
2018-11-13T06:32:07.936Z,10.85
2018-11-13T06:33:07.868Z,10.86
2018-11-13T06:34:07.892Z,10.83
2018-11-13T06:35:07.851Z,10.86
2018-11-13T06:36:07.882Z,10.83
2018-11-13T06:37:07.857Z,10.79
2018-11-13T06:38:07.876Z,10.80
2018-11-13T06:39:07.808Z,10.78
2018-11-13T06:40:07.839Z,10.73
2018-11-13T06:41:07.865Z,10.65
2018-11-13T06:42:07.832Z,10.64
2018-11-13T06:43:07.766Z,10.64
2018-11-13T06:44:07.821Z,10.64
2018-11-13T06:45:07.749Z,10.64
2018-11-13T06:46:07.743Z,10.67
2018-11-13T06:47:07.723Z,10.62
2018-11-13T06:48:07.705Z,10.58
2018-11-13T06:49:07.870Z,10.62
2018-11-13T06:50:07.743Z,10.54
2018-11-13T06:51:07.677Z,10.72
2018-11-13T06:52:07.660Z,10.67
2018-11-13T06:53:07.658Z,10.76
2018-11-13T06:54:07.651Z,10.70
2018-11-13T06:55:07.642Z,10.61
2018-11-13T06:56:07.666Z,10.52
2018-11-13T06:57:07.625Z,10.55
2018-11-13T06:58:07.596Z,10.58
2018-11-13T06:59:07.595Z,10.57
2018-11-13T07:00:07.589Z,10.58
2018-11-13T07:01:07.571Z,10.48
2018-11-13T07:02:07.605Z,10.48
2018-11-13T07:03:07.568Z,10.39
2018-11-13T07:04:07.541Z,10.41
2018-11-13T07:05:07.587Z,10.38
2018-11-13T07:06:07.522Z,10.38
2018-11-13T07:07:07.501Z,10.36
2018-11-13T07:08:07.660Z,10.24
2018-11-13T07:09:07.479Z,10.35
2018-11-13T07:10:07.475Z,10.23
2018-11-13T07:11:07.523Z,10.26
2018-11-13T07:12:07.458Z,10.23
2018-11-13T07:13:07.445Z,10.21
2018-11-13T07:14:07.482Z,10.27
2018-11-13T07:15:07.419Z,10.24
2018-11-13T07:16:07.411Z,10.31
2018-11-13T07:17:07.401Z,10.26
2018-11-13T07:18:07.419Z,10.18
2018-11-13T07:19:07.376Z,10.09
2018-11-13T07:20:07.413Z,10.12
2018-11-13T07:21:07.392Z,10.01
2018-11-13T07:22:07.341Z,10.03
2018-11-13T07:23:07.344Z,10.02
2018-11-13T07:24:07.350Z,10.01
2018-11-13T07:25:07.328Z,10.01
2018-11-13T07:26:07.351Z,10.03
2018-11-13T07:27:07.431Z,10.06
2018-11-13T07:28:07.345Z,10.20
2018-11-13T07:29:07.264Z,10.24
2018-11-13T07:30:07.249Z,10.21
2018-11-13T07:31:07.243Z,10.27
2018-11-13T07:32:07.283Z,10.24
2018-11-13T07:33:07.224Z,10.24
2018-11-13T07:34:07.231Z,10.27
2018-11-13T07:35:07.216Z,10.24
2018-11-13T07:36:07.193Z,10.26
2018-11-13T07:37:07.178Z,10.28
2018-11-13T07:38:07.269Z,10.28
2018-11-13T07:39:07.156Z,10.26
2018-11-13T07:40:07.144Z,10.27
2018-11-13T07:41:07.208Z,10.36
2018-11-13T07:42:07.137Z,10.41
2018-11-13T07:43:07.112Z,10.39
2018-11-13T07:44:07.163Z,10.43
2018-11-13T07:45:07.179Z,10.38
2018-11-13T07:46:07.081Z,10.38
2018-11-13T07:47:07.166Z,10.42
2018-11-13T07:48:07.145Z,10.34
2018-11-13T07:49:07.059Z,10.36
2018-11-13T07:50:07.090Z,10.46
2018-11-13T07:51:07.086Z,10.39
2018-11-13T07:52:07.034Z,10.43
2018-11-13T07:53:07.009Z,10.42
2018-11-13T07:54:07.214Z,10.38
2018-11-13T07:55:06.993Z,10.39
2018-11-13T07:56:07.039Z,10.41
2018-11-13T07:57:06.973Z,10.45
2018-11-13T07:58:06.953Z,10.49
2018-11-13T07:59:06.967Z,10.54
2018-11-13T08:00:06.931Z,10.54
2018-11-13T08:01:06.960Z,10.62
2018-11-13T08:02:06.950Z,10.54
2018-11-13T08:03:06.912Z,10.64
2018-11-13T08:04:06.893Z,10.65
2018-11-13T08:05:06.877Z,10.65
2018-11-13T08:06:06.873Z,10.75
2018-11-13T08:07:06.858Z,10.80
2018-11-13T08:08:06.881Z,10.94
2018-11-13T08:09:06.826Z,10.97
2018-11-13T08:10:06.837Z,11.00
2018-11-13T08:11:06.807Z,11.00
2018-11-13T08:12:06.795Z,11.04
2018-11-13T08:13:06.968Z,11.00
2018-11-13T08:14:06.813Z,11.05
2018-11-13T08:15:06.788Z,11.04
2018-11-13T08:16:06.750Z,11.09
2018-11-13T08:17:06.743Z,11.05
2018-11-13T08:18:06.730Z,11.12
2018-11-13T08:19:06.729Z,11.22
2018-11-13T08:20:06.753Z,11.20
2018-11-13T08:21:06.742Z,11.28
2018-11-13T08:22:06.756Z,11.33
2018-11-13T08:23:06.686Z,11.41
2018-11-13T08:24:06.675Z,11.48
2018-11-13T08:25:06.672Z,11.43
2018-11-13T08:26:06.729Z,11.54
2018-11-13T08:27:06.635Z,11.55
2018-11-13T08:28:06.713Z,11.62
2018-11-13T08:29:06.673Z,11.66
2018-11-13T08:30:06.601Z,11.66
2018-11-13T08:31:06.591Z,11.70
2018-11-13T08:32:06.631Z,11.76
2018-11-13T08:33:06.613Z,11.80
2018-11-13T08:34:06.554Z,11.82
2018-11-13T08:35:06.623Z,11.85
2018-11-13T08:36:06.549Z,11.88
2018-11-13T08:37:06.532Z,11.91
2018-11-13T08:38:06.581Z,11.96
2018-11-13T08:39:06.504Z,12.03
2018-11-13T08:40:06.492Z,12.03
2018-11-13T08:41:06.483Z,12.05
2018-11-13T08:42:06.484Z,12.22
2018-11-13T08:43:06.463Z,12.18
2018-11-13T08:44:06.489Z,12.22
2018-11-13T08:45:06.452Z,12.23
2018-11-13T08:46:06.451Z,12.28
2018-11-13T08:47:06.417Z,12.25
2018-11-13T08:48:06.420Z,12.26
2018-11-13T08:49:06.386Z,12.33
2018-11-13T08:50:06.440Z,12.35
2018-11-13T08:51:06.387Z,12.26
2018-11-13T08:52:06.374Z,12.36
2018-11-13T08:53:06.386Z,12.41
2018-11-13T08:54:06.334Z,12.35
2018-11-13T08:55:06.332Z,12.26
2018-11-13T08:56:06.393Z,12.26
2018-11-13T08:57:06.310Z,12.17
2018-11-13T08:58:06.287Z,12.26
2018-11-13T08:59:06.377Z,12.28
2018-11-13T09:00:06.293Z,12.23
2018-11-13T09:01:06.257Z,12.25
2018-11-13T09:02:06.305Z,12.25
2018-11-13T09:03:06.239Z,12.29
2018-11-13T09:04:06.246Z,12.33
2018-11-13T09:05:06.353Z,12.46
2018-11-13T09:06:06.217Z,12.40
2018-11-13T09:07:06.195Z,12.47
2018-11-13T09:08:06.225Z,12.48
2018-11-13T09:09:06.171Z,12.35
2018-11-13T09:10:06.172Z,12.50
2018-11-13T09:11:06.174Z,12.50
2018-11-13T09:12:06.147Z,12.46
2018-11-13T09:13:06.121Z,12.47
2018-11-13T09:14:06.184Z,12.47
2018-11-13T09:15:06.120Z,12.47
2018-11-13T09:16:06.108Z,12.47
2018-11-13T09:17:06.086Z,12.47
2018-11-13T09:18:06.125Z,12.50
2018-11-13T09:19:06.225Z,12.51
2018-11-13T09:20:06.095Z,12.47
2018-11-13T09:21:06.043Z,12.51
2018-11-13T09:22:06.026Z,12.54
2018-11-13T09:23:06.023Z,12.69
2018-11-13T09:24:06.006Z,12.77
2018-11-13T09:25:06.051Z,12.71
2018-11-13T09:26:06.030Z,12.69
2018-11-13T09:27:05.982Z,12.68
2018-11-13T09:28:05.960Z,12.76
2018-11-13T09:29:05.947Z,12.63
2018-11-13T09:30:05.958Z,12.65
2018-11-13T09:31:06.056Z,12.65
2018-11-13T09:32:05.997Z,12.66
2018-11-13T09:33:05.993Z,12.71
2018-11-13T09:34:05.897Z,12.71
2018-11-13T09:35:05.897Z,12.77
2018-11-13T09:36:05.871Z,12.80
2018-11-13T09:37:05.857Z,12.77
2018-11-13T09:38:05.910Z,12.81
2018-11-13T09:39:05.862Z,12.81
2018-11-13T09:40:05.837Z,12.90
2018-11-13T09:41:05.830Z,12.80
2018-11-13T09:42:05.815Z,12.76
2018-11-13T09:43:05.808Z,12.84
2018-11-13T09:44:05.846Z,12.86
2018-11-13T09:45:05.836Z,12.84
2018-11-13T09:46:05.850Z,12.84
2018-11-13T09:47:05.740Z,12.84
2018-11-13T09:48:05.747Z,12.86
2018-11-13T09:49:05.733Z,12.87
2018-11-13T09:50:05.914Z,12.88
2018-11-13T09:51:05.719Z,12.87
2018-11-13T09:52:05.692Z,12.90
2018-11-13T09:53:05.773Z,12.93
2018-11-13T09:54:05.668Z,12.91
2018-11-13T09:55:05.673Z,12.86
2018-11-13T09:56:05.692Z,12.87
2018-11-13T09:57:05.626Z,12.87
2018-11-13T09:58:05.620Z,12.96
2018-11-13T09:59:05.623Z,12.95
2018-11-13T10:00:05.726Z,12.93
2018-11-13T10:01:05.950Z,12.93
2018-11-13T10:02:06.000Z,12.93
2018-11-13T10:03:06.345Z,12.91
2018-11-13T10:04:06.137Z,12.91
2018-11-13T10:05:06.251Z,12.91
2018-11-13T10:06:05.613Z,12.95
2018-11-13T10:07:05.529Z,12.99
2018-11-13T10:08:05.569Z,12.95
2018-11-13T10:09:05.497Z,12.96
2018-11-13T10:10:05.512Z,13.01
2018-11-13T10:11:05.489Z,12.91
2018-11-13T10:12:05.475Z,12.91
2018-11-13T10:13:05.451Z,13.05
2018-11-13T10:14:05.476Z,13.05
2018-11-13T10:15:05.447Z,13.01
2018-11-13T10:16:05.414Z,13.04
2018-11-13T10:17:05.437Z,13.17
2018-11-13T10:18:05.568Z,13.19
2018-11-13T10:19:05.403Z,13.24
2018-11-13T10:20:05.421Z,13.20
2018-11-13T10:21:05.368Z,13.26
2018-11-13T10:22:05.355Z,13.36
2018-11-13T10:23:05.379Z,13.38
2018-11-13T10:24:05.340Z,13.51
2018-11-13T10:25:05.325Z,13.45
2018-11-13T10:26:05.345Z,13.45
2018-11-13T10:27:05.347Z,13.54
2018-11-13T10:28:05.342Z,13.60
2018-11-13T10:29:05.290Z,13.64
2018-11-13T10:30:05.267Z,13.75
2018-11-13T10:31:05.260Z,13.75
2018-11-13T10:32:05.311Z,13.83
2018-11-13T10:33:05.229Z,13.79
2018-11-13T10:34:05.236Z,13.85
2018-11-13T10:35:05.208Z,13.61
2018-11-13T10:36:05.206Z,13.57
2018-11-13T10:37:05.190Z,13.72
2018-11-13T10:38:05.372Z,13.63
2018-11-13T10:39:05.167Z,13.64
2018-11-13T10:40:05.163Z,13.73
2018-11-13T10:41:05.285Z,13.73
2018-11-13T10:42:05.132Z,13.67
2018-11-13T10:43:05.117Z,13.61
2018-11-13T10:44:05.191Z,13.54
2018-11-13T10:45:05.097Z,13.45
2018-11-13T10:46:05.082Z,13.47
2018-11-13T10:47:05.103Z,13.54
2018-11-13T10:48:05.066Z,13.57
2018-11-13T10:49:05.123Z,13.63
2018-11-13T10:50:05.106Z,13.51
2018-11-13T10:51:05.033Z,13.54
2018-11-13T10:52:05.035Z,13.58
2018-11-13T10:53:05.021Z,13.60
2018-11-13T10:54:05.016Z,13.60
2018-11-13T10:55:04.985Z,13.60
2018-11-13T10:56:05.030Z,13.75
2018-11-13T10:57:04.996Z,13.82
2018-11-13T10:58:04.958Z,13.83
2018-11-13T10:59:04.951Z,13.79
2018-11-13T11:00:04.984Z,13.79
2018-11-13T11:01:04.934Z,13.93
2018-11-13T11:02:04.961Z,14.05
2018-11-13T11:03:04.988Z,14.15
2018-11-13T11:04:04.904Z,14.19
2018-11-13T11:05:04.892Z,14.19
2018-11-13T11:06:04.885Z,14.22
2018-11-13T11:07:04.860Z,14.19
2018-11-13T11:08:04.888Z,14.26
2018-11-13T11:09:04.855Z,14.21
2018-11-13T11:10:04.829Z,14.09
2018-11-13T11:11:04.819Z,14.13
2018-11-13T11:12:04.804Z,14.13
2018-11-13T11:13:05.133Z,14.09
2018-11-13T11:14:05.101Z,14.13
2018-11-13T11:15:04.771Z,14.21
2018-11-13T11:16:04.770Z,14.12
2018-11-13T11:17:04.746Z,14.15
2018-11-13T11:18:04.744Z,14.05
2018-11-13T11:19:04.796Z,14.05
2018-11-13T11:20:04.752Z,14.04
2018-11-13T11:21:04.710Z,13.83
2018-11-13T11:22:04.717Z,13.96
2018-11-13T11:23:04.690Z,13.90
2018-11-13T11:24:04.729Z,13.82
2018-11-13T11:25:04.685Z,13.86
2018-11-13T11:26:04.700Z,13.93
2018-11-13T11:27:04.685Z,13.88
2018-11-13T11:28:04.685Z,13.94
2018-11-13T11:29:04.624Z,13.94
2018-11-13T11:30:04.605Z,13.86
2018-11-13T11:31:04.668Z,13.96
2018-11-13T11:32:04.665Z,13.98
2018-11-13T11:33:04.586Z,13.90
2018-11-13T11:34:04.573Z,13.98
2018-11-13T11:35:04.553Z,14.08
2018-11-13T11:36:04.536Z,14.30
2018-11-13T11:37:04.527Z,14.26
2018-11-13T11:38:04.567Z,14.22
2018-11-13T11:39:04.641Z,14.12
2018-11-13T11:40:04.530Z,14.26
2018-11-13T11:41:04.495Z,14.22
2018-11-13T11:42:04.486Z,14.21
2018-11-13T11:43:04.487Z,14.22
2018-11-13T11:44:04.509Z,14.28
2018-11-13T11:45:04.442Z,14.36
2018-11-13T11:46:04.440Z,14.34
2018-11-13T11:47:04.425Z,14.38
2018-11-13T11:48:04.413Z,14.37
2018-11-13T11:49:04.404Z,14.44
2018-11-13T11:50:04.467Z,14.46
2018-11-13T11:51:04.385Z,14.45
2018-11-13T11:52:04.370Z,14.63
2018-11-13T11:53:04.363Z,14.67
2018-11-13T11:54:04.348Z,14.70
2018-11-13T11:55:04.342Z,14.58
2018-11-13T11:56:04.358Z,14.58
2018-11-13T11:57:04.332Z,14.38
2018-11-13T11:58:04.309Z,14.27
2018-11-13T11:59:04.309Z,14.34
2018-11-13T12:00:04.278Z,14.40
2018-11-13T12:01:04.270Z,14.30
2018-11-13T12:02:04.351Z,14.27
2018-11-13T12:03:04.253Z,14.22
2018-11-13T12:04:04.234Z,14.05
2018-11-13T12:05:04.247Z,13.97
2018-11-13T12:06:04.226Z,14.04
2018-11-13T12:07:04.205Z,14.08
2018-11-13T12:08:04.229Z,14.12
2018-11-13T12:09:04.191Z,14.01
2018-11-13T12:10:04.165Z,14.05
2018-11-13T12:11:04.157Z,13.91
2018-11-13T12:12:04.173Z,14.01
2018-11-13T12:13:04.138Z,14.01
2018-11-13T12:14:04.157Z,14.00
2018-11-13T12:15:04.133Z,13.93
2018-11-13T12:16:04.101Z,13.78
2018-11-13T12:17:04.092Z,13.80
2018-11-13T12:18:04.098Z,13.82
2018-11-13T12:19:04.229Z,13.88
2018-11-13T12:20:04.105Z,13.98
2018-11-13T12:21:04.054Z,13.93
2018-11-13T12:22:04.031Z,13.82
2018-11-13T12:23:04.076Z,13.80
2018-11-13T12:24:04.041Z,13.79
2018-11-13T12:25:04.010Z,13.76
2018-11-13T12:26:04.061Z,13.61
2018-11-13T12:27:05.097Z,13.75
2018-11-13T12:28:04.020Z,13.65
2018-11-13T12:29:04.039Z,13.73
2018-11-13T12:30:03.951Z,13.68
2018-11-13T12:31:03.950Z,13.60
2018-11-13T12:32:03.965Z,13.64
2018-11-13T12:33:03.931Z,13.68
2018-11-13T12:34:03.899Z,13.67
2018-11-13T12:35:03.889Z,13.63
2018-11-13T12:36:03.880Z,13.78
2018-11-13T12:37:03.880Z,13.71
2018-11-13T12:38:03.888Z,13.80
2018-11-13T12:39:03.848Z,13.64
2018-11-13T12:40:04.055Z,13.63
2018-11-13T12:41:04.235Z,13.60
2018-11-13T12:42:03.831Z,13.76
2018-11-13T12:43:03.801Z,13.76
2018-11-13T12:44:03.848Z,13.75
2018-11-13T12:45:03.790Z,13.75
2018-11-13T12:46:03.768Z,13.75
2018-11-13T12:47:03.758Z,13.71
2018-11-13T12:48:03.756Z,13.72
2018-11-13T12:49:03.780Z,13.78
2018-11-13T12:50:03.809Z,13.80
2018-11-13T12:51:03.736Z,13.80
2018-11-13T12:52:03.711Z,13.78